Map

Track Data

SID SEASON NUMBER BASIN SUBBASIN NAME ISO_TIME NATURE LAT LON WMO_WIND WMO_PRES WMO_AGENCY TRACK_TYPE DIST2LAND LANDFALL IFLAG USA_AGENCY USA_ATCF_ID USA_LAT USA_LON USA_RECORD USA_STATUS USA_WIND USA_PRES USA_SSHS USA_R34_NE USA_R34_SE USA_R34_SW USA_R34_NW USA_R50_NE USA_R50_SE USA_R50_SW USA_R50_NW USA_R64_NE USA_R64_SE USA_R64_SW USA_R64_NW USA_POCI USA_ROCI USA_RMW USA_EYE TOKYO_LAT TOKYO_LON TOKYO_GRADE TOKYO_WIND TOKYO_PRES TOKYO_R50_DIR TOKYO_R50_LONG TOKYO_R50_SHORT TOKYO_R30_DIR TOKYO_R30_LONG TOKYO_R30_SHORT TOKYO_LAND CMA_LAT CMA_LON CMA_CAT CMA_WIND CMA_PRES HKO_LAT HKO_LON HKO_CAT HKO_WIND HKO_PRES NEWDELHI_LAT NEWDELHI_LON NEWDELHI_GRADE NEWDELHI_WIND NEWDELHI_PRES NEWDELHI_CI NEWDELHI_DP NEWDELHI_POCI REUNION_LAT REUNION_LON REUNION_TYPE REUNION_WIND REUNION_PRES REUNION_TNUM REUNION_CI REUNION_RMW REUNION_R34_NE REUNION_R34_SE REUNION_R34_SW REUNION_R34_NW REUNION_R50_NE REUNION_R50_SE REUNION_R50_SW REUNION_R50_NW REUNION_R64_NE REUNION_R64_SE REUNION_R64_SW REUNION_R64_NW BOM_LAT BOM_LON BOM_TYPE BOM_WIND BOM_PRES BOM_TNUM BOM_CI BOM_RMW BOM_R34_NE BOM_R34_SE BOM_R34_SW BOM_R34_NW BOM_R50_NE BOM_R50_SE BOM_R50_SW BOM_R50_NW BOM_R64_NE BOM_R64_SE BOM_R64_SW BOM_R64_NW BOM_ROCI BOM_POCI BOM_EYE BOM_POS_METHOD BOM_PRES_METHOD NADI_LAT NADI_LON NADI_CAT NADI_WIND NADI_PRES WELLINGTON_LAT WELLINGTON_LON WELLINGTON_WIND WELLINGTON_PRES DS824_LAT DS824_LON DS824_STAGE DS824_WIND DS824_PRES TD9636_LAT TD9636_LON TD9636_STAGE TD9636_WIND TD9636_PRES TD9635_LAT TD9635_LON TD9635_WIND TD9635_PRES TD9635_ROCI NEUMANN_LAT NEUMANN_LON NEUMANN_CLASS NEUMANN_WIND NEUMANN_PRES MLC_LAT MLC_LON MLC_CLASS MLC_WIND MLC_PRES USA_GUST BOM_GUST BOM_GUST_PER REUNION_GUST REUNION_GUST_PER USA_SEAHGT USA_SEARAD_NE USA_SEARAD_SE USA_SEARAD_SW USA_SEARAD_NW STORM_SPEED STORM_DIR
1853269N26298 1853 15 NA NA NOT_NAMED 1853-09-26 00:00:00 TS 25.8000 -62.0000 50 hurdat_atl main 906 906 O_____________ hurdat_atl AL061853 25.8000 -62.0000 TS 50 0 17 344
1853269N26298 1853 15 NA NA NOT_NAMED 1853-09-26 03:00:00 TS 26.6001 -62.2568 main 977 977 P_____________ AL061853 26.6001 -62.2568 TS 50 0 17 344
1853269N26298 1853 15 NA NA NOT_NAMED 1853-09-26 06:00:00 TS 27.4000 -62.5000 50 hurdat_atl main 1054 1054 O_____________ hurdat_atl AL061853 27.4000 -62.5000 TS 50 0 17 346
1853269N26298 1853 15 NA NA NOT_NAMED 1853-09-26 09:00:00 TS 28.2000 -62.7153 main 1134 1134 P_____________ AL061853 28.2000 -62.7153 TS 50 0 16 348
1853269N26298 1853 15 NA NA NOT_NAMED 1853-09-26 12:00:00 TS 29.0000 -62.9000 50 hurdat_atl main 1215 1215 O_____________ hurdat_atl AL061853 29.0000 -62.9000 TS 50 0 16 347
1853269N26298 1853 15 NA NA NOT_NAMED 1853-09-26 15:00:00 TS 29.7475 -63.1234 main 1287 1285 P_____________ AL061853 29.7475 -63.1234 TS 50 0 16 351
1853269N26298 1853 15 NA NA NOT_NAMED 1853-09-26 18:00:00 TS 30.6000 -63.2000 50 hurdat_atl main 1279 1235 O_____________ hurdat_atl AL061853 30.6000 -63.2000 TS 50 0 20 3
1853269N26298 1853 15 NA NA NOT_NAMED 1853-09-26 21:00:00 TS 31.7272 -63.0201 main 1239 1181 P_____________ AL061853 31.7272 -63.0201 TS 55 0 24 12
1853269N26298 1853 15 NA NA NOT_NAMED 1853-09-27 00:00:00 TS 32.9000 -62.6000 60 hurdat_atl main 1176 1103 O_____________ hurdat_atl AL061853 32.9000 -62.6000 TS 60 0 24 21
1853269N26298 1853 15 NA NA NOT_NAMED 1853-09-27 03:00:00 TS 33.9325 -62.0183 main 1106 1027 P_____________ AL061853 33.9325 -62.0183 TS 60 0 22 30
1853269N26298 1853 15 NA NA NOT_NAMED 1853-09-27 06:00:00 TS 34.8000 -61.3000 60 hurdat_atl main 1027 976 O_____________ hurdat_atl AL061853 34.8000 -61.3000 TS 60 0 20 38
1853269N26298 1853 15 NA NA NOT_NAMED 1853-09-27 09:00:00 TS 35.4899 -60.5567 main 976 956 P_____________ AL061853 35.4899 -60.5567 TS 65 1 17 46
1853269N26298 1853 15 NA NA NOT_NAMED 1853-09-27 12:00:00 TS 36.0000 -59.8000 70 hurdat_atl main 956 944 O_____________ hurdat_atl AL061853 36.0000 -59.8000 HU 70 1 15 52
1853269N26298 1853 15 NA NA NOT_NAMED 1853-09-27 15:00:00 TS 36.4324 -59.0621 main 949 944 P_____________ AL061853 36.4324 -59.0621 HU 70 1 13 58
1853269N26298 1853 15 NA NA NOT_NAMED 1853-09-27 18:00:00 TS 36.7000 -58.4000 70 hurdat_atl main 955 955 O_____________ hurdat_atl AL061853 36.7000 -58.4000 HU 70 1 11 67
1853269N26298 1853 15 NA NA NOT_NAMED 1853-09-27 21:00:00 TS 36.8396 -57.8470 main 973 973 P_____________ AL061853 36.8396 -57.8470 HU 70 1 8 83
1853269N26298 1853 15 NA NA NOT_NAMED 1853-09-28 00:00:00 TS 36.8000 -57.4000 70 hurdat_atl main 984 984 O_____________ hurdat_atl AL061853 36.8000 -57.4000 HU 70 1 7 107
1853269N26298 1853 15 NA NA NOT_NAMED 1853-09-28 03:00:00 TS 36.6175 -56.9590 main 1016 1016 P_____________ AL061853 36.6175 -56.9590 HU 70 1 8 132
1853269N26298 1853 15 NA NA NOT_NAMED 1853-09-28 06:00:00 TS 36.3000 -56.7000 70 hurdat_atl main 1056 1056 O_____________ hurdat_atl AL061853 36.3000 -56.7000 HU 70 1 8 167
1853269N26298 1853 15 NA NA NOT_NAMED 1853-09-28 09:00:00 TS 35.8624 -56.7410 main 1098 1098 P_____________ AL061853 35.8624 -56.7410 HU 70 1 8 192
1853269N26298 1853 15 NA NA NOT_NAMED 1853-09-28 12:00:00 TS 35.5000 -56.9000 70 hurdat_atl main 1135 1135 O_____________ hurdat_atl AL061853 35.5000 -56.9000 HU 70 1 4 202
1853269N26298 1853 15 NA NA NOT_NAMED 1853-09-28 15:00:00 TS 35.4475 -56.9498 main 1146 1133 P_____________ AL061853 35.4475 -56.9498 HU 70 1 1 270
1853269N26298 1853 15 NA NA NOT_NAMED 1853-09-28 18:00:00 TS 35.5000 -57.0000 70 hurdat_atl main 1133 1130 O_____________ hurdat_atl AL061853 35.5000 -57.0000 HU 70 1 1 275
1853269N26298 1853 15 NA NA NOT_NAMED 1853-09-28 21:00:00 TS 35.4575 -57.0925 main 1130 1130 P_____________ AL061853 35.4575 -57.0925 HU 70 1 2 238
1853269N26298 1853 15 NA NA NOT_NAMED 1853-09-29 00:00:00 TS 35.4000 -57.2000 70 hurdat_atl main 1136 1131 O_____________ hurdat_atl AL061853 35.4000 -57.2000 HU 70 1 2 234
1853269N26298 1853 15 NA NA NOT_NAMED 1853-09-29 03:00:00 TS 35.3425 -57.2925 main 1140 1135 P_____________ AL061853 35.3425 -57.2925 HU 70 1 2 238
1853269N26298 1853 15 NA NA NOT_NAMED 1853-09-29 06:00:00 TS 35.3000 -57.4000 70 hurdat_atl main 1135 1130 O_____________ hurdat_atl AL061853 35.3000 -57.4000 HU 70 1 2 255
1853269N26298 1853 15 NA NA NOT_NAMED 1853-09-29 09:00:00 TS 35.2850 -57.5500 main 1130 1120 P_____________ AL061853 35.2850 -57.5500 HU 70 1 2 270
1853269N26298 1853 15 NA NA NOT_NAMED 1853-09-29 12:00:00 TS 35.3000 -57.7000 70 hurdat_atl main 1120 1115 O_____________ hurdat_atl AL061853 35.3000 -57.7000 HU 70 1 2 285
1853269N26298 1853 15 NA NA NOT_NAMED 1853-09-29 15:00:00 TS 35.3425 -57.8075 main 1115 1100 P_____________ AL061853 35.3425 -57.8075 HU 70 1 2 302
1853269N26298 1853 15 NA NA NOT_NAMED 1853-09-29 18:00:00 TS 35.4000 -57.9000 70 hurdat_atl main 1100 1086 O_____________ hurdat_atl AL061853 35.4000 -57.9000 HU 70 1 2 306
1853269N26298 1853 15 NA NA NOT_NAMED 1853-09-29 21:00:00 TS 35.4575 -58.0075 main 1086 1081 P_____________ AL061853 35.4575 -58.0075 HU 70 1 2 302
1853269N26298 1853 15 NA NA NOT_NAMED 1853-09-30 00:00:00 TS 35.5000 -58.1000 70 hurdat_atl main 1081 1076 O_____________ hurdat_atl AL061853 35.5000 -58.1000 HU 70 1 1 283
1853269N26298 1853 15 NA NA NOT_NAMED 1853-09-30 03:00:00 TS 35.4850 -58.1576 main 1076 1076 P_____________ AL061853 35.4850 -58.1576 HU 70 1 1 270
1853269N26298 1853 15 NA NA NOT_NAMED 1853-09-30 06:00:00 TS 35.5000 -58.2000 70 hurdat_atl main 1076 1062 O_____________ hurdat_atl AL061853 35.5000 -58.2000 HU 70 1 2 324
1853269N26298 1853 15 NA NA NOT_NAMED 1853-09-30 09:00:00 TS 35.6125 -58.2797 main 1062 1043 P_____________ AL061853 35.6125 -58.2797 HU 70 1 3 346
1853269N26298 1853 15 NA NA NOT_NAMED 1853-09-30 12:00:00 TS 35.8000 -58.3000 70 hurdat_atl main 1043 1030 O_____________ hurdat_atl AL061853 35.8000 -58.3000 HU 70 1 4 9
1853269N26298 1853 15 NA NA NOT_NAMED 1853-09-30 15:00:00 TS 36.0200 -58.1949 main 1030 1012 P_____________ AL061853 36.0200 -58.1949 HU 70 1 6 26
1853269N26298 1853 15 NA NA NOT_NAMED 1853-09-30 18:00:00 TS 36.3000 -58.0000 70 hurdat_atl main 1012 993 O_____________ hurdat_atl AL061853 36.3000 -58.0000 HU 70 1 7 29
1853269N26298 1853 15 NA NA NOT_NAMED 1853-09-30 21:00:00 TS 36.6124 -57.7796 main 993 960 P_____________ AL061853 36.6124 -57.7796 HU 70 1 8 30
1853269N26298 1853 15 NA NA NOT_NAMED 1853-10-01 00:00:00 TS 37.0000 -57.5000 70 hurdat_atl main 960 926 O_____________ hurdat_atl AL061853 37.0000 -57.5000 HU 70 1 10 30
1853269N26298 1853 15 NA NA NOT_NAMED 1853-10-01 03:00:00 TS 37.4753 -57.1662 main 915 876 P_____________ AL061853 37.4753 -57.1662 HU 70 1 11 29
1853269N26298 1853 15 NA NA NOT_NAMED 1853-10-01 06:00:00 TS 38.0000 -56.8000 70 hurdat_atl main 876 O_____________ hurdat_atl AL061853 38.0000 -56.8000 HU 70 1 12 29

About IBTrACS Database

This database is a web-friendly format of International Best Track Archive for Climate Stewardship (IBTrACS), a global best track data archive curated by NOAA dating back to 1842.

Updated: 2021-12-08